sensor_id;sensor_type;location;lat;lon;timestamp;pressure;altitude;pressure_sealevel;temperature;humidity
59240;BME280;45010;53.640;10.578;2023-05-23T00:01:57;100609.81;;;28.22;37.44
59240;BME280;45010;53.640;10.578;2023-05-23T00:04:57;100608.78;;;28.23;37.02
59240;BME280;45010;53.640;10.578;2023-05-23T00:07:59;100585.91;;;28.15;37.21
59240;BME280;45010;53.640;10.578;2023-05-23T00:11:00;100608.78;;;28.23;36.89
59240;BME280;45010;53.640;10.578;2023-05-23T00:14:00;100600.69;;;28.18;37.27
59240;BME280;45010;53.640;10.578;2023-05-23T00:17:01;100593.75;;;28.22;37.15
59240;BME280;45010;53.640;10.578;2023-05-23T00:20:02;100597.75;;;28.19;37.19
59240;BME280;45010;53.640;10.578;2023-05-23T00:23:03;100595.31;;;28.18;37.18
59240;BME280;45010;53.640;10.578;2023-05-23T00:26:03;100592.06;;;28.16;37.34
59240;BME280;45010;53.640;10.578;2023-05-23T00:29:03;100590.72;;;28.13;37.27
59240;BME280;45010;53.640;10.578;2023-05-23T00:32:04;100593.41;;;28.13;37.08
59240;BME280;45010;53.640;10.578;2023-05-23T00:35:05;100587.97;;;28.03;36.85
59240;BME280;45010;53.640;10.578;2023-05-23T00:38:05;100595.78;;;28.10;37.05
59240;BME280;45010;53.640;10.578;2023-05-23T00:41:06;100600.59;;;28.08;36.89
59240;BME280;45010;53.640;10.578;2023-05-23T00:44:07;100598.44;;;28.04;37.18
59240;BME280;45010;53.640;10.578;2023-05-23T00:47:09;100583.41;;;28.03;36.98
59240;BME280;45010;53.640;10.578;2023-05-23T00:50:12;100596.28;;;28.01;37.36
59240;BME280;45010;53.640;10.578;2023-05-23T00:53:15;100590.38;;;27.99;37.13
59240;BME280;45010;53.640;10.578;2023-05-23T00:56:17;100589.00;;;27.97;36.97
59240;BME280;45010;53.640;10.578;2023-05-23T00:59:17;100579.53;;;27.84;37.04
59240;BME280;45010;53.640;10.578;2023-05-23T01:02:20;100596.75;;;27.93;37.01
59240;BME280;45010;53.640;10.578;2023-05-23T01:05:20;100596.19;;;27.91;37.27
59240;BME280;45010;53.640;10.578;2023-05-23T01:08:24;100599.94;;;27.90;37.63
59240;BME280;45010;53.640;10.578;2023-05-23T01:11:31;100595.91;;;27.87;37.16
59240;BME280;45010;53.640;10.578;2023-05-23T01:18:11;100595.63;;;27.84;37.40
59240;BME280;45010;53.640;10.578;2023-05-23T01:21:17;100589.66;;;27.76;37.20
59240;BME280;45010;53.640;10.578;2023-05-23T01:27:56;100594.19;;;27.76;37.53
59240;BME280;45010;53.640;10.578;2023-05-23T01:31:01;100590.69;;;27.70;37.44
59240;BME280;45010;53.640;10.578;2023-05-23T01:34:03;100601.69;;;27.74;37.16
59240;BME280;45010;53.640;10.578;2023-05-23T01:37:07;100587.97;;;27.65;37.16
59240;BME280;45010;53.640;10.578;2023-05-23T01:40:09;100593.88;;;27.67;37.05
59240;BME280;45010;53.640;10.578;2023-05-23T01:43:10;100600.88;;;27.68;37.03
59240;BME280;45010;53.640;10.578;2023-05-23T01:46:10;100595.75;;;27.66;37.57
59240;BME280;45010;53.640;10.578;2023-05-23T01:49:13;100590.59;;;27.60;37.39
59240;BME280;45010;53.640;10.578;2023-05-23T01:52:14;100592.78;;;27.63;37.16
59240;BME280;45010;53.640;10.578;2023-05-23T01:55:16;100591.16;;;27.62;37.48
59240;BME280;45010;53.640;10.578;2023-05-23T01:58:21;100596.78;;;27.60;37.66
59240;BME280;45010;53.640;10.578;2023-05-23T02:01:22;100591.88;;;27.57;37.39
59240;BME280;45010;53.640;10.578;2023-05-23T02:04:22;100592.72;;;27.58;37.21
59240;BME280;45010;53.640;10.578;2023-05-23T02:07:23;100591.09;;;27.57;37.19
59240;BME280;45010;53.640;10.578;2023-05-23T02:10:23;100587.84;;;27.55;37.54
59240;BME280;45010;53.640;10.578;2023-05-23T02:13:23;100587.06;;;27.54;37.27
59240;BME280;45010;53.640;10.578;2023-05-23T02:16:24;100600.69;;;27.52;37.23
59240;BME280;45010;53.640;10.578;2023-05-23T02:19:25;100587.53;;;27.51;37.72
59240;BME280;45010;53.640;10.578;2023-05-23T02:22:26;100574.63;;;27.43;37.36
59240;BME280;45010;53.640;10.578;2023-05-23T02:25:26;100581.66;;;27.49;37.70
59240;BME280;45010;53.640;10.578;2023-05-23T02:28:27;100579.22;;;27.47;37.72
59240;BME280;45010;53.640;10.578;2023-05-23T02:31:27;100584.81;;;27.46;37.41
59240;BME280;45010;53.640;10.578;2023-05-23T02:34:27;100579.75;;;27.44;37.36
59240;BME280;45010;53.640;10.578;2023-05-23T02:37:28;100580.78;;;27.43;37.65
59240;BME280;45010;53.640;10.578;2023-05-23T02:40:28;100580.78;;;27.43;37.39
59240;BME280;45010;53.640;10.578;2023-05-23T02:43:29;100582.66;;;27.43;37.81
59240;BME280;45010;53.640;10.578;2023-05-23T02:46:29;100578.38;;;27.42;37.91
59240;BME280;45010;53.640;10.578;2023-05-23T02:49:29;100574.34;;;27.39;37.38
59240;BME280;45010;53.640;10.578;2023-05-23T02:52:31;100568.97;;;27.39;37.65
59240;BME280;45010;53.640;10.578;2023-05-23T02:55:31;100572.72;;;27.38;37.95
59240;BME280;45010;53.640;10.578;2023-05-23T02:58:32;100575.66;;;27.36;37.42
59240;BME280;45010;53.640;10.578;2023-05-23T03:01:34;100580.19;;;27.36;37.32
59240;BME280;45010;53.640;10.578;2023-05-23T03:04:35;100583.94;;;27.35;37.85
59240;BME280;45010;53.640;10.578;2023-05-23T03:07:37;100570.47;;;27.30;37.35
59240;BME280;45010;53.640;10.578;2023-05-23T03:10:37;100575.00;;;27.24;37.86
59240;BME280;45010;53.640;10.578;2023-05-23T03:13:37;100580.09;;;27.25;37.49
59240;BME280;45010;53.640;10.578;2023-05-23T03:16:37;100584.69;;;27.30;37.41
59240;BME280;45010;53.640;10.578;2023-05-23T03:19:38;100586.56;;;27.30;37.36
59240;BME280;45010;53.640;10.578;2023-05-23T03:22:38;100587.63;;;27.29;37.84
59240;BME280;45010;53.640;10.578;2023-05-23T03:25:42;100576.06;;;27.23;37.76
59240;BME280;45010;53.640;10.578;2023-05-23T03:28:42;100588.69;;;27.28;37.75
59240;BME280;45010;53.640;10.578;2023-05-23T03:31:42;100582.78;;;27.25;37.96
59240;BME280;45010;53.640;10.578;2023-05-23T03:34:43;100584.63;;;27.25;37.45
59240;BME280;45010;53.640;10.578;2023-05-23T03:37:43;100561.19;;;27.10;37.50
59240;BME280;45010;53.640;10.578;2023-05-23T03:40:43;100584.88;;;27.23;37.90
59240;BME280;45010;53.640;10.578;2023-05-23T03:43:44;100580.59;;;27.22;37.80
59240;BME280;45010;53.640;10.578;2023-05-23T03:46:44;100591.31;;;27.22;37.51
59240;BME280;45010;53.640;10.578;2023-05-23T03:49:44;100570.34;;;27.14;37.75
59240;BME280;45010;53.640;10.578;2023-05-23T03:52:45;100583.53;;;27.21;37.90
59240;BME280;45010;53.640;10.578;2023-05-23T03:55:45;100582.72;;;27.20;37.51
59240;BME280;45010;53.640;10.578;2023-05-23T03:58:45;100578.41;;;27.19;37.33
59240;BME280;45010;53.640;10.578;2023-05-23T04:01:46;100580.53;;;27.17;37.51
59240;BME280;45010;53.640;10.578;2023-05-23T04:04:46;100577.63;;;27.19;37.82
59240;BME280;45010;53.640;10.578;2023-05-23T04:07:46;100571.72;;;27.17;37.52
59240;BME280;45010;53.640;10.578;2023-05-23T04:10:47;100576.25;;;27.16;37.46
59240;BME280;45010;53.640;10.578;2023-05-23T04:13:47;100576.25;;;27.16;37.53
59240;BME280;45010;53.640;10.578;2023-05-23T04:16:47;100573.03;;;27.14;37.83
59240;BME280;45010;53.640;10.578;2023-05-23T04:19:49;100574.66;;;27.15;37.47
59240;BME280;45010;53.640;10.578;2023-05-23T04:22:49;100574.66;;;27.15;37.54
59240;BME280;45010;53.640;10.578;2023-05-23T04:25:50;100572.22;;;27.13;37.75
59240;BME280;45010;53.640;10.578;2023-05-23T04:28:50;100571.38;;;27.13;37.96
59240;BME280;45010;53.640;10.578;2023-05-23T04:31:53;100567.09;;;27.12;37.89
59240;BME280;45010;53.640;10.578;2023-05-23T04:34:54;100561.19;;;27.10;37.86
59240;BME280;45010;53.640;10.578;2023-05-23T04:37:55;100572.72;;;27.10;37.55
59240;BME280;45010;53.640;10.578;2023-05-23T04:40:57;100566.56;;;27.10;37.82
59240;BME280;45010;53.640;10.578;2023-05-23T04:43:57;100557.91;;;27.03;37.67
59240;BME280;45010;53.640;10.578;2023-05-23T04:46:58;100564.94;;;27.09;37.46
59240;BME280;45010;53.640;10.578;2023-05-23T04:49:58;100563.34;;;27.08;37.57
59240;BME280;45010;53.640;10.578;2023-05-23T04:52:59;100553.66;;;27.07;37.64
59240;BME280;45010;53.640;10.578;2023-05-23T04:55:59;100560.09;;;27.06;37.83
59240;BME280;45010;53.640;10.578;2023-05-23T04:59:00;100565.44;;;27.06;37.57
59240;BME280;45010;53.640;10.578;2023-05-23T05:02:00;100560.09;;;27.06;37.57
59240;BME280;45010;53.640;10.578;2023-05-23T05:05:01;100561.97;;;27.05;37.90
59240;BME280;45010;53.640;10.578;2023-05-23T05:08:01;100564.63;;;27.05;37.53
59240;BME280;45010;53.640;10.578;2023-05-23T05:11:02;100568.34;;;27.04;37.58
59240;BME280;45010;53.640;10.578;2023-05-23T05:14:02;100570.25;;;27.04;37.59
59240;BME280;45010;53.640;10.578;2023-05-23T05:17:02;100578.28;;;27.04;37.64
59240;BME280;45010;53.640;10.578;2023-05-23T05:20:03;100582.00;;;27.03;37.98
59240;BME280;45010;53.640;10.578;2023-05-23T05:23:07;100582.00;;;27.03;37.69
59240;BME280;45010;53.640;10.578;2023-05-23T05:26:09;100581.41;;;26.95;37.69
59240;BME280;45010;53.640;10.578;2023-05-23T05:29:09;100600.16;;;27.01;37.97
59240;BME280;45010;53.640;10.578;2023-05-23T05:32:10;100605.53;;;27.01;37.99
59240;BME280;45010;53.640;10.578;2023-05-23T05:35:10;100597.78;;;26.99;37.90
59240;BME280;45010;53.640;10.578;2023-05-23T05:38:13;100599.00;;;26.91;37.75
59240;BME280;45010;53.640;10.578;2023-05-23T05:41:13;100618.34;;;26.98;37.95
59240;BME280;45010;53.640;10.578;2023-05-23T05:44:13;100612.38;;;26.91;37.63
59240;BME280;45010;53.640;10.578;2023-05-23T05:47:14;100611.38;;;26.97;37.95
59240;BME280;45010;53.640;10.578;2023-05-23T05:50:15;100616.75;;;26.97;37.83
59240;BME280;45010;53.640;10.578;2023-05-23T05:53:15;100615.13;;;26.96;37.91
59240;BME280;45010;53.640;10.578;2023-05-23T05:56:16;100613.53;;;26.95;37.75
59240;BME280;45010;53.640;10.578;2023-05-23T05:59:16;100609.78;;;26.96;37.91
59240;BME280;45010;53.640;10.578;2023-05-23T06:02:16;100596.63;;;26.95;38.21
59240;BME280;45010;53.640;10.578;2023-05-23T06:05:17;100601.16;;;26.94;37.83
59240;BME280;45010;53.640;10.578;2023-05-23T06:08:17;100608.41;;;26.94;38.19
59240;BME280;45010;53.640;10.578;2023-05-23T06:11:18;100608.66;;;26.92;38.23
59240;BME280;45010;53.640;10.578;2023-05-23T06:14:18;100614.00;;;26.92;37.80
59240;BME280;45010;53.640;10.578;2023-05-23T06:17:18;100619.34;;;26.92;37.92
59240;BME280;45010;53.640;10.578;2023-05-23T06:20:18;100622.03;;;26.92;37.87
59240;BME280;45010;53.640;10.578;2023-05-23T06:23:19;100627.38;;;26.92;37.88
59240;BME280;45010;53.640;10.578;2023-05-23T06:26:19;100630.06;;;26.92;37.90
59240;BME280;45010;53.640;10.578;2023-05-23T06:29:19;100630.06;;;26.92;38.10
59240;BME280;45010;53.640;10.578;2023-05-23T06:32:20;100628.44;;;26.91;38.00
59240;BME280;45010;53.640;10.578;2023-05-23T06:35:20;100630.50;;;26.89;38.86
59240;BME280;45010;53.640;10.578;2023-05-23T06:38:20;100630.50;;;26.89;39.08
59240;BME280;45010;53.640;10.578;2023-05-23T06:41:21;100635.31;;;26.87;39.07
59240;BME280;45010;53.640;10.578;2023-05-23T06:44:21;100628.34;;;26.86;39.35
59240;BME280;45010;53.640;10.578;2023-05-23T06:47:22;100636.38;;;26.86;38.96
59240;BME280;45010;53.640;10.578;2023-05-23T06:50:22;100634.75;;;26.85;39.11
59240;BME280;45010;53.640;10.578;2023-05-23T06:53:22;100642.78;;;26.85;39.15
59240;BME280;45010;53.640;10.578;2023-05-23T06:56:23;100638.00;;;26.87;39.60
59240;BME280;45010;53.640;10.578;2023-05-23T06:59:23;100648.69;;;26.87;39.46
59240;BME280;45010;53.640;10.578;2023-05-23T07:02:23;100639.59;;;26.88;39.21
59240;BME280;45010;53.640;10.578;2023-05-23T07:05:24;100633.19;;;26.89;39.70
59240;BME280;45010;53.640;10.578;2023-05-23T07:08:24;100633.81;;;26.91;39.39
59240;BME280;45010;53.640;10.578;2023-05-23T07:11:24;100636.22;;;26.93;39.24
59240;BME280;45010;53.640;10.578;2023-05-23T07:14:25;100633.28;;;26.94;39.65
59240;BME280;45010;53.640;10.578;2023-05-23T07:17:25;100633.03;;;26.96;39.65
59240;BME280;45010;53.640;10.578;2023-05-23T07:20:29;100619.34;;;26.92;39.21
59240;BME280;45010;53.640;10.578;2023-05-23T07:23:32;100636.53;;;26.96;39.77
59240;BME280;45010;53.640;10.578;2023-05-23T07:26:33;100630.69;;;26.99;39.27
59240;BME280;45010;53.640;10.578;2023-05-23T07:29:34;100634.97;;;27.01;39.38
59240;BME280;45010;53.640;10.578;2023-05-23T07:32:35;100633.94;;;27.02;39.16
59240;BME280;45010;53.640;10.578;2023-05-23T07:35:35;100637.94;;;27.04;39.62
59240;BME280;45010;53.640;10.578;2023-05-23T07:38:35;100647.34;;;27.07;39.39
59240;BME280;45010;53.640;10.578;2023-05-23T07:41:36;100651.66;;;27.08;39.06
59240;BME280;45010;53.640;10.578;2023-05-23T07:44:36;100655.97;;;27.09;38.92
59240;BME280;45010;53.640;10.578;2023-05-23T07:47:37;100625.53;;;26.93;38.97
59240;BME280;45010;53.640;10.578;2023-05-23T07:50:40;100659.19;;;27.11;38.98
59240;BME280;45010;53.640;10.578;2023-05-23T07:53:41;100656.50;;;27.11;39.29
59240;BME280;45010;53.640;10.578;2023-05-23T07:56:41;100663.47;;;27.12;38.84
59240;BME280;45010;53.640;10.578;2023-05-23T07:59:42;100663.22;;;27.13;38.66
59240;BME280;45010;53.640;10.578;2023-05-23T08:02:42;100669.41;;;27.14;39.07
59240;BME280;45010;53.640;10.578;2023-05-23T08:05:43;100675.31;;;27.16;39.14
59240;BME280;45010;53.640;10.578;2023-05-23T08:08:43;100684.94;;;27.17;39.08
59240;BME280;45010;53.640;10.578;2023-05-23T08:11:43;100682.28;;;27.17;39.10
59240;BME280;45010;53.640;10.578;2023-05-23T08:14:44;100674.78;;;27.19;38.52
59240;BME280;45010;53.640;10.578;2023-05-23T08:17:44;100681.78;;;27.20;38.68
59240;BME280;45010;53.640;10.578;2023-05-23T08:20:44;100690.63;;;27.21;38.98
59240;BME280;45010;53.640;10.578;2023-05-23T08:23:45;100698.41;;;27.22;38.44
59240;BME280;45010;53.640;10.578;2023-05-23T08:26:45;100695.47;;;27.24;38.70
59240;BME280;45010;53.640;10.578;2023-05-23T08:29:46;100701.63;;;27.24;38.88
59240;BME280;45010;53.640;10.578;2023-05-23T08:32:47;100683.88;;;27.18;38.71
59240;BME280;45010;53.640;10.578;2023-05-23T08:35:47;100706.50;;;27.28;38.36
59240;BME280;45010;53.640;10.578;2023-05-23T08:38:49;100695.19;;;27.20;38.68
59240;BME280;45010;53.640;10.578;2023-05-23T08:41:50;100711.34;;;27.31;38.69
59240;BME280;45010;53.640;10.578;2023-05-23T08:44:50;100714.03;;;27.31;38.36
59240;BME280;45010;53.640;10.578;2023-05-23T08:47:51;100703.75;;;27.22;38.58
59240;BME280;45010;53.640;10.578;2023-05-23T08:50:53;100717.81;;;27.35;38.58
59240;BME280;45010;53.640;10.578;2023-05-23T08:53:53;100726.41;;;27.37;38.63
59240;BME280;45010;53.640;10.578;2023-05-23T08:56:57;100718.34;;;27.32;38.46
59240;BME280;45010;53.640;10.578;2023-05-23T08:59:59;100735.81;;;27.39;38.51
59240;BME280;45010;53.640;10.578;2023-05-23T09:03:00;100737.44;;;27.40;38.17
59240;BME280;45010;53.640;10.578;2023-05-23T09:06:00;100742.53;;;27.42;38.43
59240;BME280;45010;53.640;10.578;2023-05-23T09:09:01;100753.25;;;27.42;38.28
59240;BME280;45010;53.640;10.578;2023-05-23T09:12:01;100750.25;;;27.38;38.11
59240;BME280;45010;53.640;10.578;2023-05-23T09:15:03;100757.53;;;27.43;38.29
59240;BME280;45010;53.640;10.578;2023-05-23T09:18:04;100767.22;;;27.44;38.52
59240;BME280;45010;53.640;10.578;2023-05-23T09:21:05;100760.72;;;27.40;38.10
59240;BME280;45010;53.640;10.578;2023-05-23T09:24:06;100778.47;;;27.46;38.38
59240;BME280;45010;53.640;10.578;2023-05-23T09:27:07;100784.66;;;27.47;38.21
59240;BME280;45010;53.640;10.578;2023-05-23T09:30:09;100777.97;;;27.49;38.31
59240;BME280;45010;53.640;10.578;2023-05-23T09:33:13;100787.66;;;27.50;38.15
59240;BME280;45010;53.640;10.578;2023-05-23T09:36:13;100769.25;;;27.37;38.24
59240;BME280;45010;53.640;10.578;2023-05-23T09:39:14;100800.53;;;27.53;38.38
59240;BME280;45010;53.640;10.578;2023-05-23T09:42:20;100791.06;;;27.46;38.00
59240;BME280;45010;53.640;10.578;2023-05-23T09:45:28;100809.13;;;27.56;38.30
59240;BME280;45010;53.640;10.578;2023-05-23T09:48:29;100812.41;;;27.58;38.29
59240;BME280;45010;53.640;10.578;2023-05-23T09:51:32;100812.41;;;27.58;38.33
59240;BME280;45010;53.640;10.578;2023-05-23T09:54:33;100814.84;;;27.59;37.85
59240;BME280;45010;53.640;10.578;2023-05-23T09:57:34;100804.59;;;27.56;38.10
59240;BME280;45010;53.640;10.578;2023-05-23T10:00:38;100814.56;;;27.61;38.07
59240;BME280;45010;53.640;10.578;2023-05-23T10:03:49;100818.91;;;27.62;37.92
59240;BME280;45010;53.640;10.578;2023-05-23T10:07:00;100814.03;;;27.59;37.75
59240;BME280;45010;53.640;10.578;2023-05-23T10:10:06;100822.13;;;27.64;37.70
59240;BME280;45010;53.640;10.578;2023-05-23T10:13:08;100822.13;;;27.64;38.07
59240;BME280;45010;53.640;10.578;2023-05-23T10:16:20;100828.03;;;27.66;37.51
59240;BME280;45010;53.640;10.578;2023-05-23T10:19:42;100837.69;;;27.67;37.99
59240;BME280;45010;53.640;10.578;2023-05-23T10:22:47;100837.69;;;27.67;37.95
59240;BME280;45010;53.640;10.578;2023-05-23T10:25:47;100834.22;;;27.66;37.56
59240;BME280;45010;53.640;10.578;2023-05-23T10:28:48;100840.13;;;27.69;37.63
59240;BME280;45010;53.640;10.578;2023-05-23T10:31:51;100837.19;;;27.70;38.06
59240;BME280;45010;53.640;10.578;2023-05-23T10:34:59;100853.28;;;27.70;38.02
59240;BME280;45010;53.640;10.578;2023-05-23T10:38:22;100849.53;;;27.71;37.88
59240;BME280;45010;53.640;10.578;2023-05-23T10:41:40;100855.97;;;27.70;37.66
59240;BME280;45010;53.640;10.578;2023-05-23T10:44:42;100856.75;;;27.71;38.09
59240;BME280;45010;53.640;10.578;2023-05-23T10:47:42;100859.19;;;27.72;37.86
59240;BME280;45010;53.640;10.578;2023-05-23T10:50:43;100870.41;;;27.69;38.02
59240;BME280;45010;53.640;10.578;2023-05-23T10:53:52;100878.69;;;27.68;37.70
59240;BME280;45010;53.640;10.578;2023-05-23T10:57:03;100889.19;;;27.69;38.02
59240;BME280;45010;53.640;10.578;2023-05-23T11:00:04;100888.19;;;27.75;37.98
59240;BME280;45010;53.640;10.578;2023-05-23T11:03:11;100896.22;;;27.75;38.17
59240;BME280;45010;53.640;10.578;2023-05-23T11:06:37;100888.72;;;27.77;37.81
59240;BME280;45010;53.640;10.578;2023-05-23T11:10:02;100901.06;;;27.78;37.27
59240;BME280;45010;53.640;10.578;2023-05-23T11:13:05;100910.72;;;27.79;37.35
59240;BME280;45010;53.640;10.578;2023-05-23T11:16:46;100899.53;;;27.83;37.30
59240;BME280;45010;53.640;10.578;2023-05-23T11:19:59;100897.75;;;27.71;37.26
59240;BME280;45010;53.640;10.578;2023-05-23T11:23:03;100921.50;;;27.85;37.40
59240;BME280;45010;53.640;10.578;2023-05-23T11:26:29;100929.56;;;27.85;37.46
59240;BME280;45010;53.640;10.578;2023-05-23T11:29:30;100933.28;;;27.84;37.58
59240;BME280;45010;53.640;10.578;2023-05-23T11:32:30;100930.63;;;27.84;37.48
59240;BME280;45010;53.640;10.578;2023-05-23T11:35:31;100935.97;;;27.84;37.56
59240;BME280;45010;53.640;10.578;2023-05-23T11:38:31;100930.63;;;27.84;37.62
59240;BME280;45010;53.640;10.578;2023-05-23T11:41:33;100924.47;;;27.83;37.34
59240;BME280;45010;53.640;10.578;2023-05-23T11:44:34;100930.38;;;27.85;37.51
59240;BME280;45010;53.640;10.578;2023-05-23T11:47:39;100938.72;;;27.89;37.37
59240;BME280;45010;53.640;10.578;2023-05-23T11:50:49;100919.19;;;27.71;36.99
59240;BME280;45010;53.640;10.578;2023-05-23T11:53:49;100944.84;;;27.84;37.06
59240;BME280;45010;53.640;10.578;2023-05-23T11:56:50;100941.25;;;27.78;36.94
59240;BME280;45010;53.640;10.578;2023-05-23T11:59:50;100944.84;;;27.84;37.03
59240;BME280;45010;53.640;10.578;2023-05-23T12:02:51;100952.63;;;27.86;37.17
59240;BME280;45010;53.640;10.578;2023-05-23T12:05:53;100947.25;;;27.86;37.27
59240;BME280;45010;53.640;10.578;2023-05-23T12:08:53;100940.84;;;27.87;37.53
59240;BME280;45010;53.640;10.578;2023-05-23T12:11:54;100950.50;;;27.88;37.19
59240;BME280;45010;53.640;10.578;2023-05-23T12:14:55;100962.84;;;27.89;37.24
59240;BME280;45010;53.640;10.578;2023-05-23T12:17:56;100960.72;;;27.91;37.34
59240;BME280;45010;53.640;10.578;2023-05-23T12:21:01;100956.44;;;27.90;37.38
59240;BME280;45010;53.640;10.578;2023-05-23T12:24:11;100964.22;;;27.91;37.13
59240;BME280;45010;53.640;10.578;2023-05-23T12:27:12;100962.38;;;27.92;37.43
59240;BME280;45010;53.640;10.578;2023-05-23T12:30:13;100965.59;;;27.94;37.31
59240;BME280;45010;53.640;10.578;2023-05-23T12:33:14;100971.50;;;27.96;37.38
59240;BME280;45010;53.640;10.578;2023-05-23T12:36:20;100969.66;;;27.97;36.82
59240;BME280;45010;53.640;10.578;2023-05-23T12:39:25;100958.63;;;27.93;37.16
59240;BME280;45010;53.640;10.578;2023-05-23T12:42:26;100979.06;;;27.99;36.88
59240;BME280;45010;53.640;10.578;2023-05-23T12:45:32;100972.91;;;27.99;36.83
59240;BME280;45010;53.640;10.578;2023-05-23T12:48:33;100984.44;;;27.99;36.91
59240;BME280;45010;53.640;10.578;2023-05-23T12:51:33;100982.31;;;28.01;36.74
59240;BME280;45010;53.640;10.578;2023-05-23T12:54:34;100987.66;;;28.01;37.22
59240;BME280;45010;53.640;10.578;2023-05-23T12:57:34;100961.72;;;27.85;37.03
59240;BME280;45010;53.640;10.578;2023-05-23T13:00:35;100997.66;;;28.06;36.65
59240;BME280;45010;53.640;10.578;2023-05-23T13:03:35;100977.47;;;27.98;36.81
59240;BME280;45010;53.640;10.578;2023-05-23T13:06:36;100987.50;;;28.08;36.78
59240;BME280;45010;53.640;10.578;2023-05-23T13:09:36;100999.84;;;28.09;36.69
59240;BME280;45010;53.640;10.578;2023-05-23T13:12:36;100986.19;;;28.11;35.82
59240;BME280;45010;53.640;10.578;2023-05-23T13:15:37;100996.91;;;28.11;35.71
59240;BME280;45010;53.640;10.578;2023-05-23T13:18:37;100989.13;;;28.09;35.19
59240;BME280;45010;53.640;10.578;2023-05-23T13:21:38;100997.72;;;28.11;34.71
59240;BME280;45010;53.640;10.578;2023-05-23T13:24:39;100997.66;;;28.06;34.35
59240;BME280;45010;53.640;10.578;2023-05-23T13:27:42;101006.59;;;28.12;34.01
59240;BME280;45010;53.640;10.578;2023-05-23T13:30:42;101002.28;;;28.11;33.33
59240;BME280;45010;53.640;10.578;2023-05-23T13:33:43;101000.63;;;28.10;33.03
59240;BME280;45010;53.640;10.578;2023-05-23T13:36:43;100999.03;;;28.09;32.79
59240;BME280;45010;53.640;10.578;2023-05-23T13:39:43;101001.94;;;28.07;32.24
59240;BME280;45010;53.640;10.578;2023-05-23T13:42:46;101011.88;;;28.06;32.30
59240;BME280;45010;53.640;10.578;2023-05-23T13:45:46;101002.06;;;27.95;32.10
59240;BME280;45010;53.640;10.578;2023-05-23T13:48:46;101020.16;;;28.05;32.10
59240;BME280;45010;53.640;10.578;2023-05-23T13:51:47;101035.44;;;28.04;32.09
59240;BME280;45010;53.640;10.578;2023-05-23T13:54:48;101037.53;;;28.02;32.05
59240;BME280;45010;53.640;10.578;2023-05-23T13:57:49;101037.53;;;28.02;31.50
59240;BME280;45010;53.640;10.578;2023-05-23T14:00:49;101041.28;;;28.01;31.37
59240;BME280;45010;53.640;10.578;2023-05-23T14:03:50;101042.13;;;28.02;31.34
59240;BME280;45010;53.640;10.578;2023-05-23T14:06:50;101051.19;;;28.01;31.09
59240;BME280;45010;53.640;10.578;2023-05-23T14:09:50;101046.66;;;28.01;31.07
59240;BME280;45010;53.640;10.578;2023-05-23T14:12:51;101064.88;;;27.99;31.29
59240;BME280;45010;53.640;10.578;2023-05-23T14:15:51;101038.97;;;27.88;30.77
59240;BME280;45010;53.640;10.578;2023-05-23T14:18:53;101051.69;;;27.98;30.72
59240;BME280;45010;53.640;10.578;2023-05-23T14:21:53;101058.69;;;27.99;30.85
59240;BME280;45010;53.640;10.578;2023-05-23T14:24:53;101052.53;;;27.98;30.39
59240;BME280;45010;53.640;10.578;2023-05-23T14:27:54;101056.25;;;27.97;30.43
59240;BME280;45010;53.640;10.578;2023-05-23T14:30:54;101054.38;;;27.98;30.44
59240;BME280;45010;53.640;10.578;2023-05-23T14:33:55;101061.59;;;27.97;30.51
59240;BME280;45010;53.640;10.578;2023-05-23T14:36:55;101063.16;;;27.93;30.38
59240;BME280;45010;53.640;10.578;2023-05-23T14:39:56;101041.50;;;27.77;30.83
59240;BME280;45010;53.640;10.578;2023-05-23T14:42:56;101058.88;;;27.92;30.85
59240;BME280;45010;53.640;10.578;2023-05-23T14:45:56;101065.84;;;27.93;31.56
59240;BME280;45010;53.640;10.578;2023-05-23T14:48:57;101071.22;;;27.93;31.67
59240;BME280;45010;53.640;10.578;2023-05-23T14:51:57;101071.22;;;27.93;31.44
59240;BME280;45010;53.640;10.578;2023-05-23T14:54:58;101076.56;;;27.93;31.98
59240;BME280;45010;53.640;10.578;2023-05-23T14:58:00;101089.38;;;27.91;32.34
59240;BME280;45010;53.640;10.578;2023-05-23T15:01:00;101082.66;;;27.88;32.32
59240;BME280;45010;53.640;10.578;2023-05-23T15:04:01;101087.69;;;27.85;32.39
59240;BME280;45010;53.640;10.578;2023-05-23T15:07:01;101092.50;;;27.83;32.74
59240;BME280;45010;53.640;10.578;2023-05-23T15:10:03;101092.50;;;27.83;31.29
59240;BME280;45010;53.640;10.578;2023-05-23T15:13:04;101077.88;;;27.73;31.20
59240;BME280;45010;53.640;10.578;2023-05-23T15:16:05;101089.72;;;27.77;32.12
59240;BME280;45010;53.640;10.578;2023-05-23T15:19:06;101093.47;;;27.76;32.00
59240;BME280;45010;53.640;10.578;2023-05-23T15:22:06;101089.16;;;27.75;32.13
59240;BME280;45010;53.640;10.578;2023-05-23T15:25:07;101078.91;;;27.72;32.74
59240;BME280;45010;53.640;10.578;2023-05-23T15:28:08;101079.75;;;27.73;32.90
59240;BME280;45010;53.640;10.578;2023-05-23T15:31:08;101089.25;;;27.81;32.62
59240;BME280;45010;53.640;10.578;2023-05-23T15:34:09;101102.16;;;27.84;32.96
59240;BME280;45010;53.640;10.578;2023-05-23T15:37:09;101099.47;;;27.84;32.67
59240;BME280;45010;53.640;10.578;2023-05-23T15:40:11;101102.72;;;27.86;32.87
59240;BME280;45010;53.640;10.578;2023-05-23T15:43:11;101108.06;;;27.86;32.80
59240;BME280;45010;53.640;10.578;2023-05-23T15:46:12;101122.53;;;27.85;33.17